createdAt,value
2023-01-25T00:00:33.530Z,83.96
2023-01-25T00:01:33.529Z,84.06
2023-01-25T00:02:33.597Z,84.06
2023-01-25T00:03:33.586Z,83.96
2023-01-25T00:04:33.500Z,83.96
2023-01-25T00:05:33.490Z,83.96
2023-01-25T00:06:33.485Z,83.96
2023-01-25T00:07:33.461Z,83.96
2023-01-25T00:08:33.501Z,84.06
2023-01-25T00:09:33.463Z,83.86
2023-01-25T00:10:33.450Z,83.86
2023-01-25T00:11:33.427Z,83.96
2023-01-25T00:12:33.410Z,83.96
2023-01-25T00:13:33.426Z,83.96
2023-01-25T00:14:33.405Z,83.96
2023-01-25T00:15:33.412Z,83.96
2023-01-25T00:16:33.428Z,83.96
2023-01-25T00:17:33.367Z,84.06
2023-01-25T00:18:33.366Z,84.06
2023-01-25T00:19:33.352Z,84.17
2023-01-25T00:20:33.335Z,84.17
2023-01-25T00:21:33.322Z,84.06
2023-01-25T00:22:33.312Z,84.17
2023-01-25T00:23:33.317Z,84.27
2023-01-25T00:24:33.289Z,84.38
2023-01-25T00:25:33.290Z,84.38
2023-01-25T00:26:33.274Z,84.48
2023-01-25T00:27:33.258Z,84.59
2023-01-25T00:28:33.269Z,84.42
2023-01-25T00:29:33.238Z,84.63
2023-01-25T00:30:33.225Z,84.63
2023-01-25T00:31:33.353Z,84.83
2023-01-25T00:32:33.266Z,85.04
2023-01-25T00:33:33.216Z,85.04
2023-01-25T00:34:33.186Z,85.04
2023-01-25T00:35:33.179Z,85.04
2023-01-25T00:36:33.163Z,85.14
2023-01-25T00:37:33.172Z,85.04
2023-01-25T00:38:33.160Z,85.04
2023-01-25T00:39:33.138Z,85.04
2023-01-25T00:40:33.129Z,84.94
2023-01-25T00:41:33.112Z,84.94
2023-01-25T00:42:33.100Z,85.04
2023-01-25T00:43:33.120Z,85.04
2023-01-25T00:44:33.081Z,84.94
2023-01-25T00:45:33.072Z,84.94
2023-01-25T00:46:33.061Z,84.94
2023-01-25T00:47:33.062Z,84.83
2023-01-25T00:48:33.052Z,84.83
2023-01-25T00:49:33.037Z,84.94
2023-01-25T00:50:33.023Z,84.73
2023-01-25T00:51:33.013Z,84.63
2023-01-25T00:52:32.993Z,84.63
2023-01-25T00:53:33.014Z,84.73
2023-01-25T00:54:32.974Z,84.83
2023-01-25T00:55:32.993Z,84.83
2023-01-25T00:56:32.954Z,84.94
2023-01-25T00:57:32.953Z,85.04
2023-01-25T00:58:32.952Z,85.04
2023-01-25T00:59:32.935Z,85.04
2023-01-25T01:00:32.913Z,85.04
2023-01-25T01:01:32.969Z,84.94
2023-01-25T01:02:32.893Z,84.94
2023-01-25T01:03:32.905Z,85.04
2023-01-25T01:04:32.947Z,85.04
2023-01-25T01:05:32.867Z,84.90
2023-01-25T01:06:32.855Z,84.69
2023-01-25T01:07:32.856Z,84.59
2023-01-25T01:08:32.856Z,84.59
2023-01-25T01:09:32.827Z,84.69
2023-01-25T01:10:32.807Z,84.59
2023-01-25T01:11:32.817Z,84.59
2023-01-25T01:12:32.797Z,84.59
2023-01-25T01:13:32.831Z,84.59
2023-01-25T01:14:32.769Z,84.59
2023-01-25T01:15:32.766Z,84.38
2023-01-25T01:16:32.787Z,84.38
2023-01-25T01:17:32.751Z,84.27
2023-01-25T01:18:32.751Z,84.38
2023-01-25T01:19:32.722Z,84.38
2023-01-25T01:20:32.717Z,84.27
2023-01-25T01:21:32.709Z,84.38
2023-01-25T01:22:32.691Z,84.48
2023-01-25T01:23:32.730Z,84.48
2023-01-25T01:24:32.679Z,84.48
2023-01-25T01:25:32.672Z,84.48
2023-01-25T01:26:32.651Z,84.48
2023-01-25T01:27:32.647Z,84.48
2023-01-25T01:28:32.650Z,84.48
2023-01-25T01:29:32.622Z,84.38
2023-01-25T01:30:32.614Z,84.38
2023-01-25T01:31:32.757Z,84.27
2023-01-25T01:32:32.678Z,84.27
2023-01-25T01:33:35.123Z,84.27
2023-01-25T01:34:32.565Z,83.96
2023-01-25T01:35:32.563Z,83.75
2023-01-25T01:36:32.544Z,83.86
2023-01-25T01:37:32.545Z,84.06
2023-01-25T01:38:32.546Z,84.17
2023-01-25T01:39:32.518Z,84.27
2023-01-25T01:40:32.504Z,84.06
2023-01-25T01:41:32.495Z,84.17
2023-01-25T01:42:32.486Z,84.06
2023-01-25T01:43:32.498Z,84.17
2023-01-25T01:44:32.464Z,84.17
2023-01-25T01:45:32.478Z,84.27
2023-01-25T01:46:32.437Z,84.38
2023-01-25T01:47:32.439Z,84.48
2023-01-25T01:48:32.437Z,84.59
2023-01-25T01:49:32.420Z,84.48
2023-01-25T01:50:32.397Z,84.38
2023-01-25T01:51:32.398Z,84.38
2023-01-25T01:52:32.389Z,84.27
2023-01-25T01:53:32.409Z,84.38
2023-01-25T01:54:32.358Z,84.34
2023-01-25T01:55:32.353Z,84.23
2023-01-25T01:56:32.372Z,84.13
2023-01-25T01:57:32.338Z,84.13
2023-01-25T01:58:32.340Z,84.06
2023-01-25T01:59:32.311Z,83.96
2023-01-25T02:00:32.309Z,83.96
2023-01-25T02:01:32.375Z,83.96
2023-01-25T02:02:32.327Z,83.96
2023-01-25T02:03:32.290Z,83.96
2023-01-25T02:04:32.260Z,83.96
2023-01-25T02:05:32.251Z,84.06
2023-01-25T02:06:32.241Z,84.06
2023-01-25T02:07:34.709Z,84.06
2023-01-25T02:08:32.247Z,84.06
2023-01-25T02:09:32.233Z,84.06
2023-01-25T02:10:32.201Z,84.17
2023-01-25T02:11:32.195Z,84.17
2023-01-25T02:12:32.181Z,84.17
2023-01-25T02:13:32.168Z,84.17
2023-01-25T02:14:32.172Z,84.27
2023-01-25T02:15:32.212Z,84.27
2023-01-25T02:16:32.143Z,84.38
2023-01-25T02:17:32.131Z,84.38
2023-01-25T02:18:32.127Z,84.38
2023-01-25T02:19:32.125Z,84.48
2023-01-25T02:20:32.117Z,84.59
2023-01-25T02:21:32.088Z,84.59
2023-01-25T02:22:32.074Z,84.48
2023-01-25T02:23:32.069Z,84.59
2023-01-25T02:24:32.068Z,84.73
2023-01-25T02:25:32.049Z,84.83
2023-01-25T02:26:32.062Z,84.83
2023-01-25T02:27:32.045Z,84.83
2023-01-25T02:28:32.010Z,84.94
2023-01-25T02:29:32.028Z,85.04
2023-01-25T02:30:31.995Z,85.04
2023-01-25T02:31:32.106Z,85.14
2023-01-25T02:32:31.973Z,85.14
2023-01-25T02:33:31.961Z,85.25
2023-01-25T02:34:31.971Z,85.35
2023-01-25T02:35:31.957Z,85.46
2023-01-25T02:36:31.939Z,85.46
2023-01-25T02:37:31.929Z,85.46
2023-01-25T02:38:31.908Z,85.56
2023-01-25T02:39:31.929Z,85.46
2023-01-25T02:40:31.892Z,85.46
2023-01-25T02:41:31.885Z,85.35
2023-01-25T02:42:31.864Z,85.35
2023-01-25T02:43:31.893Z,85.46
2023-01-25T02:44:34.325Z,85.46
2023-01-25T02:45:31.842Z,85.25
2023-01-25T02:46:31.908Z,85.04
2023-01-25T02:47:31.826Z,84.94
2023-01-25T02:48:31.809Z,84.94
2023-01-25T02:49:31.813Z,85.04
2023-01-25T02:50:31.782Z,84.94
2023-01-25T02:51:31.789Z,84.94
2023-01-25T02:52:31.763Z,84.94
2023-01-25T02:53:31.765Z,84.94
2023-01-25T02:54:31.763Z,84.94
2023-01-25T02:55:31.746Z,85.04
2023-01-25T02:56:31.725Z,85.04
2023-01-25T02:57:31.714Z,85.04
2023-01-25T02:58:31.708Z,85.04
2023-01-25T02:59:31.715Z,85.14
2023-01-25T03:00:31.682Z,85.14
2023-01-25T03:01:31.707Z,85.14
2023-01-25T03:02:31.684Z,85.14
2023-01-25T03:03:31.656Z,85.14
2023-01-25T03:04:31.656Z,85.14
2023-01-25T03:05:31.628Z,85.25
2023-01-25T03:06:31.619Z,85.35
2023-01-25T03:07:31.617Z,85.35
2023-01-25T03:08:31.607Z,85.35
2023-01-25T03:09:31.608Z,85.46
2023-01-25T03:10:31.578Z,85.46
2023-01-25T03:11:31.568Z,85.46
2023-01-25T03:12:31.558Z,85.46
2023-01-25T03:13:31.573Z,85.35
2023-01-25T03:14:31.561Z,85.35
2023-01-25T03:15:31.546Z,85.35
2023-01-25T03:16:31.619Z,85.35
2023-01-25T03:17:31.522Z,85.46
2023-01-25T03:18:31.514Z,85.46
2023-01-25T03:19:31.510Z,85.50
2023-01-25T03:20:31.487Z,85.60
2023-01-25T03:21:31.496Z,85.81
2023-01-25T03:22:31.472Z,85.91
2023-01-25T03:23:31.451Z,86.12
2023-01-25T03:24:31.450Z,86.22
2023-01-25T03:25:31.424Z,86.33
2023-01-25T03:26:31.415Z,86.33
2023-01-25T03:27:31.419Z,86.22
2023-01-25T03:28:31.401Z,86.33
2023-01-25T03:29:31.403Z,86.33
2023-01-25T03:30:31.375Z,86.22
2023-01-25T03:31:31.481Z,86.22
2023-01-25T03:32:31.401Z,86.33
2023-01-25T03:33:31.345Z,86.33
2023-01-25T03:34:31.353Z,86.43
2023-01-25T03:35:31.332Z,86.43
2023-01-25T03:36:31.351Z,86.47
2023-01-25T03:37:31.317Z,86.58
2023-01-25T03:38:31.295Z,86.68
2023-01-25T03:39:31.294Z,86.68
2023-01-25T03:40:31.278Z,86.79
2023-01-25T03:41:31.268Z,86.79
2023-01-25T03:42:31.249Z,86.79
2023-01-25T03:43:31.237Z,86.79
2023-01-25T03:44:31.249Z,86.79
2023-01-25T03:45:31.218Z,86.79
2023-01-25T03:46:31.248Z,86.79
2023-01-25T03:47:31.198Z,86.79
2023-01-25T03:48:31.212Z,86.79
2023-01-25T03:49:31.201Z,86.79
2023-01-25T03:50:31.180Z,86.68
2023-01-25T03:51:31.158Z,86.79
2023-01-25T03:52:31.150Z,86.58
2023-01-25T03:53:31.140Z,86.58
2023-01-25T03:54:31.129Z,86.68
2023-01-25T03:55:31.133Z,86.89
2023-01-25T03:56:31.110Z,86.93
2023-01-25T03:57:31.102Z,87.14
2023-01-25T03:58:31.108Z,87.24
2023-01-25T03:59:31.071Z,87.35
2023-01-25T04:00:31.083Z,87.45
2023-01-25T04:01:31.065Z,87.45
2023-01-25T04:02:31.081Z,87.45
2023-01-25T04:03:31.394Z,87.45
2023-01-25T04:04:31.022Z,87.35
2023-01-25T04:05:31.041Z,87.35
2023-01-25T04:06:31.019Z,87.45
2023-01-25T04:07:31.064Z,87.35
2023-01-25T04:08:31.004Z,87.35
2023-01-25T04:09:30.978Z,87.14
2023-01-25T04:10:30.995Z,87.04
2023-01-25T04:11:30.989Z,86.93
2023-01-25T04:12:30.945Z,86.93
2023-01-25T04:13:30.952Z,87.04
2023-01-25T04:14:43.617Z,86.89
2023-01-25T04:15:31.941Z,86.89
2023-01-25T04:16:30.953Z,86.79
2023-01-25T04:17:30.896Z,86.79
2023-01-25T04:18:30.891Z,86.68
2023-01-25T04:19:30.878Z,86.58
2023-01-25T04:20:30.888Z,86.58
2023-01-25T04:21:30.858Z,86.37
2023-01-25T04:22:30.842Z,86.37
2023-01-25T04:23:30.839Z,86.37
2023-01-25T04:24:30.827Z,86.47
2023-01-25T04:25:30.828Z,86.47
2023-01-25T04:26:30.820Z,86.58
2023-01-25T04:27:30.788Z,86.47
2023-01-25T04:28:30.784Z,86.47
2023-01-25T04:29:40.636Z,86.37
2023-01-25T04:30:31.800Z,86.37
2023-01-25T04:31:30.857Z,86.47
2023-01-25T04:32:30.846Z,86.47
2023-01-25T04:33:30.729Z,86.47
2023-01-25T04:34:30.721Z,86.37
2023-01-25T04:35:30.730Z,86.37
2023-01-25T04:36:30.704Z,86.47
2023-01-25T04:37:30.697Z,86.47
2023-01-25T04:38:30.686Z,86.58
2023-01-25T04:39:30.663Z,86.58
2023-01-25T04:40:30.683Z,86.47
2023-01-25T04:41:30.648Z,86.37
2023-01-25T04:42:30.632Z,86.37
2023-01-25T04:43:30.647Z,86.47
2023-01-25T04:44:30.612Z,86.47
2023-01-25T04:45:30.623Z,86.47
2023-01-25T04:46:30.627Z,86.58
2023-01-25T04:47:30.586Z,86.58
2023-01-25T04:48:30.575Z,86.68
2023-01-25T04:49:30.566Z,86.68
2023-01-25T04:50:30.587Z,86.68
2023-01-25T04:51:30.543Z,86.79
2023-01-25T04:52:30.536Z,86.79
2023-01-25T04:53:30.527Z,86.89
2023-01-25T04:54:30.517Z,86.79
2023-01-25T04:55:32.764Z,86.79
2023-01-25T04:56:30.496Z,86.79
2023-01-25T04:57:30.476Z,86.89
2023-01-25T04:58:30.484Z,86.89
2023-01-25T04:59:30.457Z,86.99
2023-01-25T05:00:30.486Z,86.99
2023-01-25T05:01:30.499Z,86.99
2023-01-25T05:02:30.478Z,87.10
2023-01-25T05:03:30.422Z,87.20
2023-01-25T05:04:30.422Z,87.20
2023-01-25T05:05:30.428Z,87.20
2023-01-25T05:06:30.390Z,87.10
2023-01-25T05:07:30.380Z,87.10
2023-01-25T05:08:30.381Z,86.99
2023-01-25T05:09:30.358Z,87.14
2023-01-25T05:10:30.371Z,87.24
2023-01-25T05:11:30.339Z,87.24
2023-01-25T05:12:30.341Z,87.24
2023-01-25T05:13:30.320Z,87.35
2023-01-25T05:14:30.311Z,87.35
2023-01-25T05:15:30.321Z,87.35
2023-01-25T05:16:30.307Z,87.45
2023-01-25T05:17:30.272Z,87.55
2023-01-25T05:18:39.061Z,87.66
2023-01-25T05:19:31.262Z,87.66
2023-01-25T05:20:30.271Z,87.66
2023-01-25T05:21:30.265Z,87.66
2023-01-25T05:22:30.230Z,87.55
2023-01-25T05:23:30.213Z,87.55
2023-01-25T05:24:30.360Z,87.41
2023-01-25T05:25:30.224Z,87.41
2023-01-25T05:26:30.185Z,87.41
2023-01-25T05:27:30.174Z,87.45
2023-01-25T05:28:30.170Z,87.45
2023-01-25T05:29:30.161Z,87.55
2023-01-25T05:30:30.243Z,87.55
2023-01-25T05:31:30.199Z,87.66
2023-01-25T05:32:30.125Z,87.66
2023-01-25T05:33:30.121Z,87.66
2023-01-25T05:34:30.109Z,87.66
2023-01-25T05:35:30.121Z,87.76
2023-01-25T05:36:30.113Z,87.76
2023-01-25T05:37:30.087Z,87.76
2023-01-25T05:38:30.070Z,87.66
2023-01-25T05:39:30.061Z,87.52
2023-01-25T05:40:30.057Z,87.41
2023-01-25T05:41:30.037Z,87.45
2023-01-25T05:42:30.033Z,87.55
2023-01-25T05:43:30.011Z,87.52
2023-01-25T05:44:30.003Z,87.52
2023-01-25T05:45:30.019Z,87.52
2023-01-25T05:46:30.031Z,87.45
2023-01-25T05:47:29.968Z,87.35
2023-01-25T05:48:29.958Z,87.24
2023-01-25T05:49:29.956Z,87.35
2023-01-25T05:50:29.959Z,87.45
2023-01-25T05:51:29.935Z,87.55
2023-01-25T05:52:29.927Z,87.66
2023-01-25T05:53:29.926Z,87.91
2023-01-25T05:54:29.915Z,88.01
2023-01-25T05:55:29.908Z,88.22
2023-01-25T05:56:29.882Z,88.32
2023-01-25T05:57:29.861Z,88.43
2023-01-25T05:58:29.886Z,88.43
2023-01-25T05:59:29.842Z,88.43
2023-01-25T06:00:29.864Z,88.32
2023-01-25T06:01:29.822Z,88.32
2023-01-25T06:02:29.958Z,88.32
2023-01-25T06:03:29.908Z,88.43
2023-01-25T06:04:29.800Z,88.32
2023-01-25T06:05:29.803Z,88.29
2023-01-25T06:06:29.784Z,88.22
2023-01-25T06:07:29.766Z,88.01
2023-01-25T06:08:29.771Z,88.01
2023-01-25T06:09:29.741Z,88.12
2023-01-25T06:10:29.756Z,88.22
2023-01-25T06:11:29.724Z,88.22
2023-01-25T06:12:30.373Z,88.32
2023-01-25T06:13:29.706Z,88.43
2023-01-25T06:14:29.696Z,88.53
2023-01-25T06:15:29.708Z,88.53
2023-01-25T06:16:29.695Z,88.53
2023-01-25T06:17:29.663Z,88.53
2023-01-25T06:18:30.698Z,88.53
2023-01-25T06:19:29.637Z,88.53
2023-01-25T06:20:29.647Z,88.49
2023-01-25T06:21:29.618Z,88.32
2023-01-25T06:22:29.631Z,88.18
2023-01-25T06:23:29.596Z,88.22
2023-01-25T06:24:29.707Z,88.18
2023-01-25T06:25:29.619Z,88.18
2023-01-25T06:26:29.577Z,88.29
2023-01-25T06:27:29.565Z,88.29
2023-01-25T06:28:29.557Z,88.29
2023-01-25T06:29:29.538Z,88.08
2023-01-25T06:30:29.552Z,88.08
2023-01-25T06:31:29.609Z,88.08
2023-01-25T06:32:29.510Z,87.97
2023-01-25T06:33:29.502Z,88.08
2023-01-25T06:34:29.503Z,87.97
2023-01-25T06:35:29.491Z,87.97
2023-01-25T06:36:29.471Z,87.97
2023-01-25T06:37:29.450Z,87.87
2023-01-25T06:38:29.461Z,87.97
2023-01-25T06:39:29.438Z,87.97
2023-01-25T06:40:29.444Z,87.97
2023-01-25T06:41:29.413Z,87.87
2023-01-25T06:42:29.415Z,87.87
2023-01-25T06:43:29.487Z,87.87
2023-01-25T06:44:29.390Z,87.87
2023-01-25T06:45:29.401Z,87.73
2023-01-25T06:46:29.411Z,87.62
2023-01-25T06:47:29.354Z,87.41
2023-01-25T06:48:29.346Z,87.41
2023-01-25T06:49:29.348Z,87.41
2023-01-25T06:50:29.344Z,87.41
2023-01-25T06:51:29.335Z,87.52
2023-01-25T06:52:29.344Z,87.62
2023-01-25T06:53:29.295Z,87.73
2023-01-25T06:54:29.295Z,87.76
2023-01-25T06:55:29.293Z,87.76
2023-01-25T06:56:29.264Z,87.76
2023-01-25T06:57:29.208Z,87.87
2023-01-25T06:58:29.187Z,87.45
2023-01-25T06:59:29.177Z,87.45
2023-01-25T07:00:29.280Z,87.45
2023-01-25T07:01:29.327Z,87.45
2023-01-25T07:02:29.256Z,87.45
2023-01-25T07:03:29.188Z,87.45
2023-01-25T07:04:29.190Z,87.35
2023-01-25T07:05:29.184Z,87.35
2023-01-25T07:06:29.179Z,87.35
2023-01-25T07:07:29.109Z,87.35
2023-01-25T07:08:29.090Z,87.45
2023-01-25T07:09:29.135Z,87.45
2023-01-25T07:10:29.175Z,87.66
2023-01-25T07:11:29.089Z,87.66
2023-01-25T07:12:29.049Z,87.45
2023-01-25T07:13:29.038Z,87.24
2023-01-25T07:14:29.149Z,87.04
2023-01-25T07:15:29.073Z,87.04
2023-01-25T07:16:29.111Z,86.93
2023-01-25T07:17:29.051Z,86.93
2023-01-25T07:18:29.001Z,86.83
2023-01-25T07:19:28.983Z,86.83
2023-01-25T07:20:29.027Z,86.93
2023-01-25T07:21:28.975Z,87.04
2023-01-25T07:22:28.946Z,86.93
2023-01-25T07:23:28.939Z,87.04
2023-01-25T07:24:28.930Z,87.04
2023-01-25T07:25:28.912Z,87.14
2023-01-25T07:26:28.924Z,87.24
2023-01-25T07:27:28.893Z,87.35
2023-01-25T07:28:28.885Z,87.35
2023-01-25T07:29:28.873Z,87.35
2023-01-25T07:30:28.867Z,87.24
2023-01-25T07:31:28.903Z,87.14
2023-01-25T07:32:28.846Z,87.14
2023-01-25T07:33:28.853Z,87.04
2023-01-25T07:34:28.839Z,87.04
2023-01-25T07:35:28.806Z,87.04
2023-01-25T07:36:28.814Z,87.04
2023-01-25T07:37:28.786Z,87.24
2023-01-25T07:38:28.786Z,87.24
2023-01-25T07:39:28.779Z,87.35
2023-01-25T07:40:28.765Z,87.35
2023-01-25T07:41:28.789Z,87.45
2023-01-25T07:42:28.736Z,87.55
2023-01-25T07:43:28.727Z,87.81
2023-01-25T07:44:28.719Z,87.76
2023-01-25T07:45:28.707Z,87.76
2023-01-25T07:46:28.779Z,87.81
2023-01-25T07:47:28.689Z,87.76
2023-01-25T07:48:28.688Z,87.76
2023-01-25T07:49:28.666Z,87.55
2023-01-25T07:50:28.657Z,87.14
2023-01-25T07:51:28.670Z,86.93
2023-01-25T07:52:28.629Z,86.87
2023-01-25T07:53:28.628Z,86.93
2023-01-25T07:54:28.610Z,87.14
2023-01-25T07:55:28.612Z,87.24
2023-01-25T07:56:28.609Z,87.39
2023-01-25T07:57:28.589Z,87.28
2023-01-25T07:58:28.581Z,87.49
2023-01-25T07:59:28.571Z,87.60
2023-01-25T08:00:28.552Z,87.70
2023-01-25T08:01:28.568Z,87.91
2023-01-25T08:02:28.532Z,88.22
2023-01-25T08:03:28.522Z,88.22
2023-01-25T08:04:28.526Z,88.32
2023-01-25T08:05:28.503Z,88.37
2023-01-25T08:06:28.544Z,88.37
2023-01-25T08:07:28.497Z,88.47
2023-01-25T08:08:28.490Z,88.68
2023-01-25T08:09:28.462Z,88.78
2023-01-25T08:10:28.458Z,88.78
2023-01-25T08:11:28.468Z,88.78
2023-01-25T08:12:28.444Z,88.78
2023-01-25T08:13:28.425Z,88.68
2023-01-25T08:14:28.411Z,88.78
2023-01-25T08:15:28.419Z,88.78
2023-01-25T08:16:28.406Z,88.53
2023-01-25T08:17:28.384Z,88.43
2023-01-25T08:18:28.371Z,88.32
2023-01-25T08:19:28.361Z,88.32
2023-01-25T08:20:28.351Z,88.32
2023-01-25T08:21:28.356Z,88.43
2023-01-25T08:22:28.330Z,88.32
2023-01-25T08:23:28.357Z,88.32
2023-01-25T08:24:28.345Z,88.43
2023-01-25T08:25:28.299Z,88.43
2023-01-25T08:26:28.298Z,88.32
2023-01-25T08:27:28.278Z,88.01
2023-01-25T08:28:28.268Z,88.01
2023-01-25T08:29:28.259Z,88.01
2023-01-25T08:30:28.249Z,88.01
2023-01-25T08:31:28.316Z,88.12
2023-01-25T08:32:28.249Z,88.12
2023-01-25T08:33:28.225Z,88.12
2023-01-25T08:34:28.200Z,88.01
2023-01-25T08:35:28.199Z,87.91
2023-01-25T08:36:28.395Z,87.60
2023-01-25T08:37:28.180Z,87.45
2023-01-25T08:38:28.161Z,87.39
2023-01-25T08:39:28.173Z,87.39
2023-01-25T08:40:28.140Z,87.39
2023-01-25T08:41:28.162Z,87.39
2023-01-25T08:42:28.119Z,87.49
2023-01-25T08:43:28.114Z,87.49
2023-01-25T08:44:28.103Z,87.49
2023-01-25T08:45:28.097Z,87.39
2023-01-25T08:46:30.317Z,87.60
2023-01-25T08:47:28.077Z,87.70
2023-01-25T08:48:28.061Z,87.70
2023-01-25T08:49:28.055Z,87.91
2023-01-25T08:50:28.045Z,88.16
2023-01-25T08:51:28.053Z,88.16
2023-01-25T08:52:28.968Z,88.26
2023-01-25T08:53:28.016Z,88.37
2023-01-25T08:54:28.002Z,88.47
2023-01-25T08:55:28.737Z,88.57
2023-01-25T08:56:27.999Z,88.68
2023-01-25T08:57:27.981Z,88.64
2023-01-25T08:58:27.955Z,88.53
2023-01-25T08:59:27.958Z,88.53
2023-01-25T09:00:27.936Z,88.53
2023-01-25T09:01:27.972Z,88.53
2023-01-25T09:02:27.919Z,88.53
2023-01-25T09:03:27.938Z,88.64
2023-01-25T09:04:27.900Z,88.64
2023-01-25T09:05:27.904Z,88.43
2023-01-25T09:06:27.887Z,88.22
2023-01-25T09:07:27.899Z,87.70
2023-01-25T09:08:27.856Z,87.81
2023-01-25T09:09:27.859Z,87.81
2023-01-25T09:10:27.838Z,87.91
2023-01-25T09:11:27.845Z,88.01
2023-01-25T09:12:27.834Z,88.12
2023-01-25T09:13:27.811Z,88.12
2023-01-25T09:14:27.795Z,88.01
2023-01-25T09:15:27.790Z,87.81
2023-01-25T09:16:27.781Z,87.60
2023-01-25T09:17:27.781Z,87.81
2023-01-25T09:18:27.754Z,87.91
2023-01-25T09:19:27.762Z,87.81
2023-01-25T09:20:28.304Z,87.70
2023-01-25T09:21:27.741Z,87.91
2023-01-25T09:22:27.731Z,88.26
2023-01-25T09:23:27.989Z,88.26
2023-01-25T09:24:27.720Z,88.37
2023-01-25T09:25:27.685Z,88.37
2023-01-25T09:26:27.681Z,88.47
2023-01-25T09:27:27.692Z,88.43
2023-01-25T09:28:27.652Z,88.32
2023-01-25T09:29:27.650Z,88.12
2023-01-25T09:30:40.791Z,88.12
2023-01-25T09:31:28.752Z,88.16
2023-01-25T09:32:27.739Z,88.06
2023-01-25T09:33:27.611Z,88.16
2023-01-25T09:34:27.596Z,88.16
2023-01-25T09:35:27.583Z,88.47
2023-01-25T09:36:27.564Z,88.68
2023-01-25T09:37:27.577Z,88.78
2023-01-25T09:38:27.549Z,88.68
2023-01-25T09:39:27.548Z,88.68
2023-01-25T09:40:27.556Z,88.57
2023-01-25T09:41:27.525Z,88.62
2023-01-25T09:42:27.526Z,88.72
2023-01-25T09:43:27.497Z,88.93
2023-01-25T09:44:27.487Z,89.03
2023-01-25T09:45:27.488Z,89.14
2023-01-25T09:46:27.502Z,89.24
2023-01-25T09:47:27.478Z,89.14
2023-01-25T09:48:27.448Z,89.03
2023-01-25T09:49:27.440Z,89.14
2023-01-25T09:50:27.428Z,88.93
2023-01-25T09:51:27.434Z,88.82
2023-01-25T09:52:27.420Z,88.78
2023-01-25T09:53:27.408Z,88.78
2023-01-25T09:54:28.475Z,88.78
2023-01-25T09:55:27.380Z,88.78
2023-01-25T09:56:27.375Z,88.78
2023-01-25T09:57:27.371Z,88.89
2023-01-25T09:58:27.357Z,88.89
2023-01-25T09:59:27.341Z,88.99
2023-01-25T10:00:27.320Z,88.99
2023-01-25T10:01:38.060Z,88.89
2023-01-25T10:02:28.414Z,88.89
2023-01-25T10:03:27.302Z,88.68
2023-01-25T10:04:27.290Z,88.47
2023-01-25T10:05:27.298Z,88.37
2023-01-25T10:06:29.491Z,88.16
2023-01-25T10:07:27.279Z,88.01
2023-01-25T10:08:27.243Z,87.91
2023-01-25T10:09:27.234Z,87.91
2023-01-25T10:10:27.233Z,88.01
2023-01-25T10:11:27.214Z,87.91
2023-01-25T10:12:27.214Z,87.70
2023-01-25T10:13:27.194Z,87.81
2023-01-25T10:14:27.184Z,88.01
2023-01-25T10:15:27.174Z,88.12
2023-01-25T10:16:28.498Z,88.22
2023-01-25T10:17:27.183Z,88.12
2023-01-25T10:18:27.137Z,87.91
2023-01-25T10:19:27.137Z,87.91
2023-01-25T10:20:27.116Z,87.91
2023-01-25T10:21:27.107Z,87.91
2023-01-25T10:22:28.832Z,88.01
2023-01-25T10:23:27.096Z,87.91
2023-01-25T10:24:27.146Z,87.91
2023-01-25T10:25:27.076Z,87.91
2023-01-25T10:26:27.057Z,88.01
2023-01-25T10:27:27.067Z,88.12
2023-01-25T10:28:29.149Z,87.91
2023-01-25T10:29:27.027Z,87.81
2023-01-25T10:30:27.009Z,87.81
2023-01-25T10:31:27.149Z,87.81
2023-01-25T10:32:27.009Z,87.81
2023-01-25T10:33:26.990Z,87.70
2023-01-25T10:34:26.976Z,87.60
2023-01-25T10:35:35.493Z,87.39
2023-01-25T10:36:27.953Z,87.39
2023-01-25T10:37:26.972Z,87.24
2023-01-25T10:38:26.938Z,86.97
2023-01-25T10:39:26.932Z,87.07
2023-01-25T10:40:26.911Z,87.18
2023-01-25T10:41:27.021Z,87.28
2023-01-25T10:42:26.927Z,87.49
2023-01-25T10:43:26.896Z,87.45
2023-01-25T10:44:26.882Z,87.45
2023-01-25T10:45:26.864Z,87.45
2023-01-25T10:46:26.948Z,87.35
2023-01-25T10:47:26.864Z,87.35
2023-01-25T10:48:29.020Z,87.14
2023-01-25T10:49:26.825Z,87.14
2023-01-25T10:50:26.813Z,86.93
2023-01-25T10:51:26.813Z,86.72
2023-01-25T10:52:26.814Z,86.61
2023-01-25T10:53:26.784Z,86.76
2023-01-25T10:54:28.790Z,86.87
2023-01-25T10:55:26.765Z,87.07
2023-01-25T10:56:26.757Z,87.24
2023-01-25T10:57:26.771Z,87.35
2023-01-25T10:58:26.725Z,87.35
2023-01-25T10:59:26.722Z,87.35
2023-01-25T11:00:28.692Z,87.24
2023-01-25T11:01:26.802Z,87.14
2023-01-25T11:02:26.718Z,86.93
2023-01-25T11:03:26.685Z,86.61
2023-01-25T11:04:26.666Z,86.72
2023-01-25T11:05:26.916Z,86.83
2023-01-25T11:06:28.092Z,86.93
2023-01-25T11:07:26.658Z,87.04
2023-01-25T11:08:26.624Z,86.93
2023-01-25T11:09:26.628Z,86.93
2023-01-25T11:10:26.609Z,86.83
2023-01-25T11:11:26.598Z,86.66
2023-01-25T11:12:26.600Z,86.76
2023-01-25T11:13:26.587Z,87.07
2023-01-25T11:14:26.583Z,87.28
2023-01-25T11:15:26.558Z,87.43
2023-01-25T11:16:26.560Z,87.74
2023-01-25T11:17:26.567Z,87.95
2023-01-25T11:18:26.562Z,88.16
2023-01-25T11:19:26.521Z,88.26
2023-01-25T11:20:26.504Z,88.26
2023-01-25T11:21:26.501Z,88.12
2023-01-25T11:22:26.507Z,88.12
2023-01-25T11:23:26.480Z,88.12
2023-01-25T11:24:26.512Z,88.01
2023-01-25T11:25:26.458Z,87.91
2023-01-25T11:26:26.442Z,88.01
2023-01-25T11:27:26.467Z,88.01
2023-01-25T11:28:26.449Z,87.81
2023-01-25T11:29:26.572Z,87.81
2023-01-25T11:30:26.403Z,87.60
2023-01-25T11:31:26.459Z,87.74
2023-01-25T11:32:26.455Z,87.84
2023-01-25T11:33:26.397Z,87.95
2023-01-25T11:34:26.393Z,87.95
2023-01-25T11:35:26.492Z,88.16
2023-01-25T11:36:26.357Z,88.26
2023-01-25T11:37:26.337Z,88.37
2023-01-25T11:38:26.337Z,88.37
2023-01-25T11:39:26.316Z,88.47
2023-01-25T11:40:26.304Z,88.78
2023-01-25T11:41:26.351Z,88.78
2023-01-25T11:42:26.276Z,88.89
2023-01-25T11:43:26.299Z,88.78
2023-01-25T11:44:26.260Z,88.75
2023-01-25T11:45:26.258Z,88.64
2023-01-25T11:46:26.304Z,88.68
2023-01-25T11:47:26.239Z,88.75
2023-01-25T11:48:26.235Z,88.68
2023-01-25T11:49:26.514Z,88.26
2023-01-25T11:50:26.196Z,88.06
2023-01-25T11:51:26.196Z,88.16
2023-01-25T11:52:26.177Z,88.26
2023-01-25T11:53:26.190Z,88.47
2023-01-25T11:54:26.177Z,88.57
2023-01-25T11:55:26.174Z,88.78
2023-01-25T11:56:26.139Z,88.89
2023-01-25T11:57:26.130Z,88.89
2023-01-25T11:58:26.132Z,88.89
2023-01-25T11:59:26.127Z,88.89
2023-01-25T12:00:26.098Z,88.85
2023-01-25T12:01:26.099Z,88.64
2023-01-25T12:02:26.096Z,88.57
2023-01-25T12:03:26.083Z,88.57
2023-01-25T12:04:26.072Z,88.57
2023-01-25T12:05:26.091Z,88.78
2023-01-25T12:06:26.033Z,88.89
2023-01-25T12:07:26.023Z,89.20
2023-01-25T12:08:26.034Z,89.31
2023-01-25T12:09:26.009Z,89.51
2023-01-25T12:10:26.009Z,89.51
2023-01-25T12:11:25.998Z,89.62
2023-01-25T12:12:25.990Z,89.56
2023-01-25T12:13:25.988Z,89.34
2023-01-25T12:14:25.964Z,89.34
2023-01-25T12:15:25.943Z,89.34
2023-01-25T12:16:26.008Z,89.34
2023-01-25T12:17:25.927Z,89.34
2023-01-25T12:18:25.938Z,89.56
2023-01-25T12:19:25.902Z,89.66
2023-01-25T12:20:25.898Z,89.66
2023-01-25T12:21:31.829Z,89.70
2023-01-25T12:22:26.876Z,89.49
2023-01-25T12:23:25.880Z,89.70
2023-01-25T12:24:25.950Z,89.81
2023-01-25T12:25:25.838Z,89.70
2023-01-25T12:26:25.849Z,89.70
2023-01-25T12:27:26.166Z,89.81
2023-01-25T12:28:25.827Z,89.81
2023-01-25T12:29:25.800Z,89.81
2023-01-25T12:30:25.789Z,89.59
2023-01-25T12:31:25.807Z,89.59
2023-01-25T12:32:25.780Z,89.49
2023-01-25T12:33:25.778Z,89.18
2023-01-25T12:34:25.759Z,88.87
2023-01-25T12:35:25.741Z,88.76
2023-01-25T12:36:25.729Z,88.87
2023-01-25T12:37:25.800Z,88.97
2023-01-25T12:38:25.740Z,88.87
2023-01-25T12:39:25.701Z,89.07
2023-01-25T12:40:25.694Z,89.18
2023-01-25T12:41:25.695Z,89.39
2023-01-25T12:42:25.671Z,89.59
2023-01-25T12:43:25.671Z,89.56
2023-01-25T12:44:25.666Z,89.66
2023-01-25T12:45:25.632Z,89.66
2023-01-25T12:46:25.716Z,89.66
2023-01-25T12:47:25.612Z,89.87
2023-01-25T12:48:25.631Z,89.87
2023-01-25T12:49:25.603Z,89.76
2023-01-25T12:50:25.708Z,89.45
2023-01-25T12:51:25.581Z,89.34
2023-01-25T12:52:25.563Z,89.34